TimeMST,TemperatureF,Dew PointF,Humidity,Sea Level PressureIn,VisibilityMPH,Wind Direction,Wind SpeedMPH,Gust SpeedMPH,PrecipitationIn,Events,Conditions,WindDirDegrees,DateUTC
12:14 AM,28.0,25.7,91,29.84,10.0,South,3.5,-,N/A,,Clear,170,2012-12-07 07:14:00
12:34 AM,28.4,25.7,90,29.84,10.0,SW,5.8,-,N/A,,Clear,230,2012-12-07 07:34:00
12:54 AM,30.6,27.3,88,29.82,10.0,WSW,10.4,-,N/A,,Clear,240,2012-12-07 07:54:00
1:14 AM,30.0,26.1,85,29.83,10.0,Calm,Calm,-,N/A,,Clear,0,2012-12-07 08:14:00
1:34 AM,29.3,25.7,86,29.83,10.0,NNE,3.5,-,N/A,,Clear,30,2012-12-07 08:34:00
1:54 AM,27.3,25.0,91,29.83,10.0,Calm,Calm,-,N/A,,Clear,0,2012-12-07 08:54:00
2:14 AM,27.9,23.9,85,29.82,10.0,Calm,Calm,-,N/A,,Clear,0,2012-12-07 09:14:00
2:34 AM,26.1,23.0,88,29.82,10.0,Calm,Calm,-,N/A,,Clear,0,2012-12-07 09:34:00
2:54 AM,25.5,23.4,92,29.82,10.0,North,5.8,-,N/A,,Clear,360,2012-12-07 09:54:00
3:14 AM,24.1,22.5,94,29.82,10.0,Calm,Calm,-,N/A,,Clear,0,2012-12-07 10:14:00
3:34 AM,23.9,22.3,94,29.81,10.0,Calm,Calm,-,N/A,,Scattered Clouds,0,2012-12-07 10:34:00
3:54 AM,24.4,22.6,93,29.79,10.0,South,3.5,-,N/A,,Scattered Clouds,180,2012-12-07 10:54:00
4:14 AM,24.8,22.8,92,29.80,10.0,SW,3.5,-,N/A,,Clear,220,2012-12-07 11:14:00
4:34 AM,24.8,22.6,91,29.80,10.0,Calm,Calm,-,N/A,,Clear,0,2012-12-07 11:34:00
4:54 AM,23.2,21.2,92,29.80,10.0,Calm,Calm,-,N/A,,Clear,0,2012-12-07 11:54:00
5:14 AM,23.4,21.6,93,29.80,10.0,South,5.8,-,N/A,,Clear,170,2012-12-07 12:14:00
5:34 AM,24.3,21.7,90,29.81,10.0,NNW,4.6,-,N/A,,Clear,340,2012-12-07 12:34:00
5:54 AM,24.3,22.1,91,29.82,10.0,WSW,3.5,-,N/A,,Scattered Clouds,250,2012-12-07 12:54:00
6:14 AM,25.5,23.2,91,29.80,10.0,Calm,Calm,-,N/A,,Mostly Cloudy,0,2012-12-07 13:14:00
6:34 AM,25.3,22.8,90,29.82,10.0,North,4.6,-,N/A,,Mostly Cloudy,350,2012-12-07 13:34:00
6:54 AM,25.3,23.0,91,29.82,10.0,SSE,5.8,-,N/A,,Scattered Clouds,160,2012-12-07 13:54:00
7:14 AM,26.4,23.5,89,29.81,10.0,Calm,Calm,-,N/A,,Mostly Cloudy,0,2012-12-07 14:14:00
7:34 AM,25.3,22.8,90,29.82,10.0,Calm,Calm,-,N/A,,Mostly Cloudy,0,2012-12-07 14:34:00
7:54 AM,26.8,24.1,90,29.83,10.0,South,3.5,-,N/A,,Scattered Clouds,190,2012-12-07 14:54:00
8:14 AM,28.4,25.0,87,29.84,10.0,SE,4.6,-,N/A,,Scattered Clouds,140,2012-12-07 15:14:00
8:34 AM,30.6,26.1,83,29.84,10.0,SE,3.5,-,N/A,,Clear,140,2012-12-07 15:34:00
8:54 AM,32.0,27.3,83,29.83,10.0,South,4.6,-,N/A,,Clear,190,2012-12-07 15:54:00
9:14 AM,36.3,30.0,78,29.84,10.0,Calm,Calm,-,N/A,,Clear,0,2012-12-07 16:14:00
9:34 AM,40.6,30.4,67,29.83,10.0,ESE,3.5,-,N/A,,Clear,110,2012-12-07 16:34:00
9:54 AM,45.5,27.5,49,29.84,10.0,NE,4.6,-,N/A,,Clear,50,2012-12-07 16:54:00
10:14 AM,46.8,25.5,43,29.84,10.0,East,8.1,-,N/A,,Clear,80,2012-12-07 17:14:00
10:34 AM,49.6,26.2,40,29.83,10.0,East,3.5,-,N/A,,Clear,100,2012-12-07 17:34:00
10:54 AM,51.3,23.4,34,29.83,10.0,ESE,8.1,-,N/A,,Clear,110,2012-12-07 17:54:00
11:14 AM,52.9,18.9,26,29.82,10.0,NE,3.5,-,N/A,,Clear,50,2012-12-07 18:14:00
11:34 AM,52.7,18.0,25,29.82,10.0,NNW,3.5,-,N/A,,Clear,340,2012-12-07 18:34:00
11:54 AM,51.4,23.2,33,29.82,10.0,ENE,16.1,-,N/A,,Clear,60,2012-12-07 18:54:00
12:14 PM,46.4,27.5,48,29.82,10.0,East,12.7,20.7,N/A,,Clear,80,2012-12-07 19:14:00
12:34 PM,44.8,23.9,44,29.82,10.0,ENE,15.0,20.7,N/A,,Clear,70,2012-12-07 19:34:00
12:54 PM,44.1,23.5,44,29.82,10.0,ENE,17.3,-,N/A,,Clear,70,2012-12-07 19:54:00
1:14 PM,44.6,23.4,43,29.82,10.0,ENE,11.5,17.3,N/A,,Clear,70,2012-12-07 20:14:00
1:34 PM,46.2,22.8,40,29.83,10.0,East,11.5,-,N/A,,Clear,90,2012-12-07 20:34:00
1:54 PM,45.7,23.0,41,29.83,10.0,East,6.9,-,N/A,,Clear,100,2012-12-07 20:54:00
2:14 PM,45.9,22.8,40,29.84,10.0,ESE,5.8,-,N/A,,Clear,110,2012-12-07 21:14:00
2:34 PM,46.2,22.8,40,29.85,10.0,ESE,9.2,-,N/A,,Clear,110,2012-12-07 21:34:00
2:52 PM,45.5,22.1,40,29.85,10.0,ESE,5.8,-,N/A,,Clear,110,2012-12-07 21:52:00
3:11 PM,45.1,22.3,40,29.85,10.0,ESE,5.8,-,N/A,,Clear,110,2012-12-07 22:11:00
3:32 PM,44.4,23.0,43,29.87,10.0,ESE,8.1,-,N/A,,Clear,110,2012-12-07 22:32:00
3:51 PM,42.8,22.8,45,29.86,10.0,ESE,5.8,-,N/A,,Clear,110,2012-12-07 22:51:00
4:11 PM,41.5,22.6,47,29.87,10.0,ESE,6.9,-,N/A,,Clear,110,2012-12-07 23:11:00
4:32 PM,38.3,22.3,53,29.88,10.0,ESE,8.1,-,N/A,,Clear,120,2012-12-07 23:32:00
4:51 PM,38.5,21.9,51,29.89,10.0,SE,10.4,-,N/A,,Clear,130,2012-12-07 23:51:00
5:12 PM,38.7,21.6,50,29.89,10.0,SE,8.1,-,N/A,,Mostly Cloudy,130,2012-12-08 00:12:00
5:32 PM,37.4,21.6,53,29.90,10.0,ESE,6.9,-,N/A,,Mostly Cloudy,110,2012-12-08 00:32:00
6:12 PM,38.3,21.0,50,29.92,10.0,ESE,8.1,-,N/A,,Overcast,120,2012-12-08 01:12:00
6:32 PM,38.3,20.7,49,29.92,10.0,SE,8.1,-,N/A,,Overcast,140,2012-12-08 01:32:00
6:52 PM,38.3,20.3,48,29.93,10.0,SSE,8.1,-,N/A,,Mostly Cloudy,150,2012-12-08 01:52:00
7:32 PM,37.9,20.3,49,29.93,10.0,SSE,10.4,-,N/A,,Mostly Cloudy,150,2012-12-08 02:32:00
7:51 PM,37.8,20.3,49,29.93,10.0,South,8.1,-,N/A,,Scattered Clouds,170,2012-12-08 02:51:00
8:12 PM,37.8,20.3,49,29.92,10.0,SSE,11.5,-,N/A,,Scattered Clouds,150,2012-12-08 03:12:00
8:31 PM,37.2,20.3,50,29.93,10.0,South,4.6,-,N/A,,Mostly Cloudy,170,2012-12-08 03:31:00
8:49 PM,36.1,20.1,52,29.92,10.0,SE,6.9,-,N/A,,Mostly Cloudy,140,2012-12-08 03:49:00
9:10 PM,35.2,20.3,55,29.92,10.0,SE,8.1,-,N/A,,Mostly Cloudy,140,2012-12-08 04:10:00
9:30 PM,36.5,20.3,52,29.92,10.0,SE,9.2,-,N/A,,Overcast,130,2012-12-08 04:30:00
9:51 PM,36.5,20.3,52,29.91,10.0,SE,8.1,-,N/A,,Overcast,140,2012-12-08 04:51:00
10:10 PM,36.1,20.8,54,29.91,10.0,SE,8.1,-,N/A,,Overcast,130,2012-12-08 05:10:00
10:31 PM,36.5,21.0,54,29.90,10.0,SE,6.9,-,N/A,,Overcast,140,2012-12-08 05:31:00
10:51 PM,35.6,21.2,56,29.90,10.0,Calm,Calm,-,N/A,,Overcast,0,2012-12-08 05:51:00
11:11 PM,35.8,21.2,55,29.89,10.0,SSE,4.6,-,N/A,,Overcast,160,2012-12-08 06:11:00
11:31 PM,35.1,21.7,58,29.88,10.0,SE,4.6,-,N/A,,Mostly Cloudy,140,2012-12-08 06:31:00
11:51 PM,33.6,21.6,61,29.88,10.0,SE,3.5,-,N/A,,Mostly Cloudy,140,2012-12-08 06:51:00